sensor_id;sensor_type;location;lat;lon;timestamp;noise_LAeq;noise_LA_min;noise_LA_max;noise_LA01;noise_LA95
82731;Laerm;72471;51.660;5.826;2024-01-06T00:00:30;42.91;35.49;55.45;;
82731;Laerm;72471;51.660;5.826;2024-01-06T00:04:30;42.5;35.43;58.98;;
82731;Laerm;72471;51.660;5.826;2024-01-06T00:08:30;38.35;35.56;47.11;;
82731;Laerm;72471;51.660;5.826;2024-01-06T00:12:30;37.97;35.43;45.11;;
82731;Laerm;72471;51.660;5.826;2024-01-06T00:16:30;37.93;35.36;48.03;;
82731;Laerm;72471;51.660;5.826;2024-01-06T00:20:31;38.48;35.2;47.84;;
82731;Laerm;72471;51.660;5.826;2024-01-06T00:24:30;38.46;35.39;45.6;;
82731;Laerm;72471;51.660;5.826;2024-01-06T00:28:30;42.57;35.45;59.18;;
82731;Laerm;72471;51.660;5.826;2024-01-06T00:32:30;37.81;35.27;45.18;;
82731;Laerm;72471;51.660;5.826;2024-01-06T00:36:30;38.67;35.37;45.21;;
82731;Laerm;72471;51.660;5.826;2024-01-06T00:40:31;42.64;35.79;60.9;;
82731;Laerm;72471;51.660;5.826;2024-01-06T00:44:31;38.27;35.23;45.91;;
82731;Laerm;72471;51.660;5.826;2024-01-06T00:52:31;39.11;35.57;45.47;;
82731;Laerm;72471;51.660;5.826;2024-01-06T00:56:31;38.64;35.63;45.5;;
82731;Laerm;72471;51.660;5.826;2024-01-06T01:00:31;38.99;35.67;48.9;;
82731;Laerm;72471;51.660;5.826;2024-01-06T01:04:30;38.33;35.3;48.51;;
82731;Laerm;72471;51.660;5.826;2024-01-06T01:08:31;44.29;35.61;59.45;;
82731;Laerm;72471;51.660;5.826;2024-01-06T01:12:31;38.35;35.52;45.77;;
82731;Laerm;72471;51.660;5.826;2024-01-06T01:16:31;38.5;35.41;47.7;;
82731;Laerm;72471;51.660;5.826;2024-01-06T01:20:31;38.67;35.51;54.14;;
82731;Laerm;72471;51.660;5.826;2024-01-06T01:24:31;46.57;35.42;68.11;;
82731;Laerm;72471;51.660;5.826;2024-01-06T01:28:31;38.46;35.37;48.73;;
82731;Laerm;72471;51.660;5.826;2024-01-06T01:32:31;38.44;35.36;47.86;;
82731;Laerm;72471;51.660;5.826;2024-01-06T01:36:31;39.14;35.49;55.92;;
82731;Laerm;72471;51.660;5.826;2024-01-06T01:40:31;38.67;35.42;49.78;;
82731;Laerm;72471;51.660;5.826;2024-01-06T01:44:31;41.14;35.45;54.75;;
82731;Laerm;72471;51.660;5.826;2024-01-06T01:48:31;38.82;35.41;49.94;;
82731;Laerm;72471;51.660;5.826;2024-01-06T01:52:31;39.12;35.82;49.11;;
82731;Laerm;72471;51.660;5.826;2024-01-06T01:56:31;38.87;35.73;50.11;;
82731;Laerm;72471;51.660;5.826;2024-01-06T02:00:31;40.35;36.29;57.34;;
82731;Laerm;72471;51.660;5.826;2024-01-06T02:04:31;40.18;35.7;50.09;;
82731;Laerm;72471;51.660;5.826;2024-01-06T02:08:31;42.1;35.83;64.47;;
82731;Laerm;72471;51.660;5.826;2024-01-06T02:12:31;41.15;36.33;56.33;;
82731;Laerm;72471;51.660;5.826;2024-01-06T02:16:31;42.61;35.88;61.48;;
82731;Laerm;72471;51.660;5.826;2024-01-06T02:20:31;40.45;35.79;59.29;;
82731;Laerm;72471;51.660;5.826;2024-01-06T02:24:31;39.39;35.62;49.82;;
82731;Laerm;72471;51.660;5.826;2024-01-06T02:28:31;39.61;35.62;49.42;;
82731;Laerm;72471;51.660;5.826;2024-01-06T02:32:31;40.27;35.57;61.04;;
82731;Laerm;72471;51.660;5.826;2024-01-06T02:36:31;40.21;35.66;49.94;;
82731;Laerm;72471;51.660;5.826;2024-01-06T02:40:31;40.53;35.8;50.02;;
82731;Laerm;72471;51.660;5.826;2024-01-06T02:44:31;40.1;35.58;49.9;;
82731;Laerm;72471;51.660;5.826;2024-01-06T02:48:31;40.13;35.07;49.64;;
82731;Laerm;72471;51.660;5.826;2024-01-06T02:52:31;40.18;35.8;55.88;;
82731;Laerm;72471;51.660;5.826;2024-01-06T02:56:31;39.75;35.67;50.47;;
82731;Laerm;72471;51.660;5.826;2024-01-06T03:00:31;38.92;35.45;49.31;;
82731;Laerm;72471;51.660;5.826;2024-01-06T03:04:31;38.71;35.35;48.99;;
82731;Laerm;72471;51.660;5.826;2024-01-06T03:08:31;38.99;35.26;49.05;;
82731;Laerm;72471;51.660;5.826;2024-01-06T03:12:31;40.03;35.34;50.32;;
82731;Laerm;72471;51.660;5.826;2024-01-06T03:16:31;39.32;35.23;50.08;;
82731;Laerm;72471;51.660;5.826;2024-01-06T03:20:31;39.4;35.17;49.61;;
82731;Laerm;72471;51.660;5.826;2024-01-06T03:24:31;39.58;35.38;49.32;;
82731;Laerm;72471;51.660;5.826;2024-01-06T03:28:31;38.71;35.23;48.84;;
82731;Laerm;72471;51.660;5.826;2024-01-06T03:32:31;38.9;35.41;49.4;;
82731;Laerm;72471;51.660;5.826;2024-01-06T03:36:31;39.45;35.33;49.9;;
82731;Laerm;72471;51.660;5.826;2024-01-06T03:40:31;44.5;35.41;62.48;;
82731;Laerm;72471;51.660;5.826;2024-01-06T03:44:31;41.76;36.2;50.28;;
82731;Laerm;72471;51.660;5.826;2024-01-06T03:48:31;40.11;35.79;50.18;;
82731;Laerm;72471;51.660;5.826;2024-01-06T03:52:31;40.43;35.81;50.69;;
82731;Laerm;72471;51.660;5.826;2024-01-06T03:56:31;40.74;36.05;50.49;;
82731;Laerm;72471;51.660;5.826;2024-01-06T04:00:31;41.07;35.7;50.48;;
82731;Laerm;72471;51.660;5.826;2024-01-06T04:04:31;41.31;35.98;50.36;;
82731;Laerm;72471;51.660;5.826;2024-01-06T04:08:31;40.73;35.83;50.62;;
82731;Laerm;72471;51.660;5.826;2024-01-06T04:12:31;40.15;36.02;50.11;;
82731;Laerm;72471;51.660;5.826;2024-01-06T04:16:31;42.2;35.97;55.21;;
82731;Laerm;72471;51.660;5.826;2024-01-06T04:20:31;40.07;35.28;50.4;;
82731;Laerm;72471;51.660;5.826;2024-01-06T04:24:31;40.66;35.56;51.73;;
82731;Laerm;72471;51.660;5.826;2024-01-06T04:28:31;40.56;35.57;51.72;;
82731;Laerm;72471;51.660;5.826;2024-01-06T04:32:31;40.02;35.37;50.72;;
82731;Laerm;72471;51.660;5.826;2024-01-06T04:36:31;39.2;35.46;49.55;;
82731;Laerm;72471;51.660;5.826;2024-01-06T04:40:31;41.74;35.55;54.66;;
82731;Laerm;72471;51.660;5.826;2024-01-06T04:44:31;41.51;35.31;55.9;;
82731;Laerm;72471;51.660;5.826;2024-01-06T04:48:31;41.02;35.58;50.24;;
82731;Laerm;72471;51.660;5.826;2024-01-06T04:52:31;40.4;35.34;50.75;;
82731;Laerm;72471;51.660;5.826;2024-01-06T04:56:31;41.84;35.37;56.14;;
82731;Laerm;72471;51.660;5.826;2024-01-06T05:00:31;44.03;35.31;61.63;;
82731;Laerm;72471;51.660;5.826;2024-01-06T05:04:31;39.57;35.15;50.62;;
82731;Laerm;72471;51.660;5.826;2024-01-06T05:08:31;39.78;35.4;50.2;;
82731;Laerm;72471;51.660;5.826;2024-01-06T05:12:31;39.99;35.44;50.27;;
82731;Laerm;72471;51.660;5.826;2024-01-06T05:16:31;40.05;35.41;50.47;;
82731;Laerm;72471;51.660;5.826;2024-01-06T05:20:31;39.8;35.27;50.16;;
82731;Laerm;72471;51.660;5.826;2024-01-06T05:24:31;39.99;35.29;50.26;;
82731;Laerm;72471;51.660;5.826;2024-01-06T05:28:31;39.64;35.2;50.48;;
82731;Laerm;72471;51.660;5.826;2024-01-06T05:32:31;41.83;35.2;57.03;;
82731;Laerm;72471;51.660;5.826;2024-01-06T05:36:31;46.06;35.51;59.9;;
82731;Laerm;72471;51.660;5.826;2024-01-06T05:40:31;44.23;35.64;61.38;;
82731;Laerm;72471;51.660;5.826;2024-01-06T05:44:31;41.55;35.78;54;;
82731;Laerm;72471;51.660;5.826;2024-01-06T05:48:31;41.37;35.42;54.99;;
82731;Laerm;72471;51.660;5.826;2024-01-06T05:52:33;47.07;35.59;64.22;;
82731;Laerm;72471;51.660;5.826;2024-01-06T05:56:31;42;36.39;50.75;;
82731;Laerm;72471;51.660;5.826;2024-01-06T06:00:31;45.18;36;58.13;;
82731;Laerm;72471;51.660;5.826;2024-01-06T06:04:31;40.41;35.83;50.78;;
82731;Laerm;72471;51.660;5.826;2024-01-06T06:08:31;40.15;35.68;50.35;;
82731;Laerm;72471;51.660;5.826;2024-01-06T06:12:31;46.47;35.79;60.36;;
82731;Laerm;72471;51.660;5.826;2024-01-06T06:16:31;40.14;35.95;49.43;;
82731;Laerm;72471;51.660;5.826;2024-01-06T06:20:31;44.11;36.09;59.06;;
82731;Laerm;72471;51.660;5.826;2024-01-06T06:24:31;40.58;35.92;50.6;;
82731;Laerm;72471;51.660;5.826;2024-01-06T06:28:31;45.07;35.89;56.43;;
82731;Laerm;72471;51.660;5.826;2024-01-06T06:32:31;43.63;35.84;54.55;;
82731;Laerm;72471;51.660;5.826;2024-01-06T06:36:31;45.28;36.21;58.73;;
82731;Laerm;72471;51.660;5.826;2024-01-06T06:40:31;42.66;35.81;54.36;;
82731;Laerm;72471;51.660;5.826;2024-01-06T06:44:31;44.13;36.91;62.92;;
82731;Laerm;72471;51.660;5.826;2024-01-06T06:48:31;42.51;36.42;54.8;;
82731;Laerm;72471;51.660;5.826;2024-01-06T06:52:31;44.98;36.1;58.67;;
82731;Laerm;72471;51.660;5.826;2024-01-06T06:56:31;45.09;36.5;60.13;;
82731;Laerm;72471;51.660;5.826;2024-01-06T07:00:31;48.92;36.57;72.81;;
82731;Laerm;72471;51.660;5.826;2024-01-06T07:04:31;44.52;37.05;69.15;;
82731;Laerm;72471;51.660;5.826;2024-01-06T07:12:31;45.56;37.9;58;;
82731;Laerm;72471;51.660;5.826;2024-01-06T07:16:32;45.86;37.52;59.74;;
82731;Laerm;72471;51.660;5.826;2024-01-06T07:20:31;50.27;37.3;62.49;;
82731;Laerm;72471;51.660;5.826;2024-01-06T07:24:31;53.4;37.18;76.6;;
82731;Laerm;72471;51.660;5.826;2024-01-06T07:28:31;53.71;36.88;75.5;;
82731;Laerm;72471;51.660;5.826;2024-01-06T07:32:31;48.38;37.22;65.32;;
82731;Laerm;72471;51.660;5.826;2024-01-06T07:36:31;47.16;37.07;63.42;;
82731;Laerm;72471;51.660;5.826;2024-01-06T07:40:31;47.88;37.69;60.74;;
82731;Laerm;72471;51.660;5.826;2024-01-06T07:44:32;48.45;37.72;66.34;;
82731;Laerm;72471;51.660;5.826;2024-01-06T07:48:31;44.93;36.89;60.56;;
82731;Laerm;72471;51.660;5.826;2024-01-06T07:52:31;48.62;37.4;65.97;;
82731;Laerm;72471;51.660;5.826;2024-01-06T07:56:31;48.33;37.57;63.34;;
82731;Laerm;72471;51.660;5.826;2024-01-06T08:00:31;48.14;37.81;65.99;;
82731;Laerm;72471;51.660;5.826;2024-01-06T08:04:31;44.54;38.21;63.52;;
82731;Laerm;72471;51.660;5.826;2024-01-06T08:08:31;49.09;37.3;63.88;;
82731;Laerm;72471;51.660;5.826;2024-01-06T08:12:31;48.99;37.89;65.66;;
82731;Laerm;72471;51.660;5.826;2024-01-06T08:16:31;46.93;38.12;57.07;;
82731;Laerm;72471;51.660;5.826;2024-01-06T08:20:31;50.32;38.23;66.05;;
82731;Laerm;72471;51.660;5.826;2024-01-06T08:26:34;59.11;40.24;79.66;;
82731;Laerm;72471;51.660;5.826;2024-01-06T08:30:33;65.25;37.2;92.93;;
82731;Laerm;72471;51.660;5.826;2024-01-06T08:34:33;60.44;37.12;85.79;;
82731;Laerm;72471;51.660;5.826;2024-01-06T08:38:33;47.95;36.98;72.99;;
82731;Laerm;72471;51.660;5.826;2024-01-06T08:42:33;46.73;36.86;52.82;;
82731;Laerm;72471;51.660;5.826;2024-01-06T08:46:34;57.43;39.32;89.95;;
82731;Laerm;72471;51.660;5.826;2024-01-06T08:50:34;67.04;39.76;85.53;;
82731;Laerm;72471;51.660;5.826;2024-01-06T08:54:33;68.26;39.72;89.68;;
82731;Laerm;72471;51.660;5.826;2024-01-06T08:58:34;68.31;39.77;85.9;;
82731;Laerm;72471;51.660;5.826;2024-01-06T09:02:34;68.71;40.54;85.53;;
82731;Laerm;72471;51.660;5.826;2024-01-06T09:06:34;66.22;37.7;83.45;;
82731;Laerm;72471;51.660;5.826;2024-01-06T09:10:33;67.57;37.55;86.49;;
82731;Laerm;72471;51.660;5.826;2024-01-06T09:14:34;68.97;38.12;84.15;;
82731;Laerm;72471;51.660;5.826;2024-01-06T09:18:34;68.76;37.87;89.07;;
82731;Laerm;72471;51.660;5.826;2024-01-06T09:22:34;70.06;37.38;88.36;;
82731;Laerm;72471;51.660;5.826;2024-01-06T09:26:34;68.25;37.76;85.89;;
82731;Laerm;72471;51.660;5.826;2024-01-06T09:30:34;71.04;37.89;84.96;;
82731;Laerm;72471;51.660;5.826;2024-01-06T09:34:34;67.77;37.88;85.36;;
82731;Laerm;72471;51.660;5.826;2024-01-06T09:38:34;67.45;37.86;83.77;;
82731;Laerm;72471;51.660;5.826;2024-01-06T09:42:34;66.99;37.53;81.82;;
82731;Laerm;72471;51.660;5.826;2024-01-06T09:46:34;67.3;37.89;82.4;;
82731;Laerm;72471;51.660;5.826;2024-01-06T09:50:34;67.72;37.33;83.69;;
82731;Laerm;72471;51.660;5.826;2024-01-06T09:54:34;69.14;38.01;83.97;;
82731;Laerm;72471;51.660;5.826;2024-01-06T09:58:34;67.12;37.85;85.4;;
82731;Laerm;72471;51.660;5.826;2024-01-06T10:02:34;68.13;37.45;83.46;;
82731;Laerm;72471;51.660;5.826;2024-01-06T10:06:34;68.04;37.35;86.21;;
82731;Laerm;72471;51.660;5.826;2024-01-06T10:10:34;69.37;37.88;95.06;;
82731;Laerm;72471;51.660;5.826;2024-01-06T10:14:34;67.66;37.56;86.68;;
82731;Laerm;72471;51.660;5.826;2024-01-06T10:18:34;70.5;38.53;87.56;;
82731;Laerm;72471;51.660;5.826;2024-01-06T10:22:35;70;37.32;90.83;;
82731;Laerm;72471;51.660;5.826;2024-01-06T10:26:34;69.66;37.69;90.41;;
82731;Laerm;72471;51.660;5.826;2024-01-06T10:30:34;69.87;37.57;98;;
82731;Laerm;72471;51.660;5.826;2024-01-06T10:34:34;70.87;37.88;86.26;;
82731;Laerm;72471;51.660;5.826;2024-01-06T10:38:34;71.06;38.28;89.34;;
82731;Laerm;72471;51.660;5.826;2024-01-06T10:42:36;68.46;39.48;83.2;;
82731;Laerm;72471;51.660;5.826;2024-01-06T10:46:34;68.33;37.74;85.93;;
82731;Laerm;72471;51.660;5.826;2024-01-06T10:50:34;68.43;37.25;84.49;;
82731;Laerm;72471;51.660;5.826;2024-01-06T10:54:34;70.96;36.95;88.38;;
82731;Laerm;72471;51.660;5.826;2024-01-06T10:58:34;69.38;38.08;85.89;;
82731;Laerm;72471;51.660;5.826;2024-01-06T11:02:34;69.74;37.62;89.79;;
82731;Laerm;72471;51.660;5.826;2024-01-06T11:06:35;68.38;37.67;84.89;;
82731;Laerm;72471;51.660;5.826;2024-01-06T11:10:34;71.13;38.09;87.16;;
82731;Laerm;72471;51.660;5.826;2024-01-06T11:14:36;71.24;38.96;89.15;;
82731;Laerm;72471;51.660;5.826;2024-01-06T11:18:34;69.05;37.39;83.2;;
82731;Laerm;72471;51.660;5.826;2024-01-06T11:22:34;71.92;37.33;89.28;;
82731;Laerm;72471;51.660;5.826;2024-01-06T11:26:34;71.8;37.6;89.03;;
82731;Laerm;72471;51.660;5.826;2024-01-06T11:30:34;71.09;37.33;87.04;;
82731;Laerm;72471;51.660;5.826;2024-01-06T11:34:36;68.88;37.5;85.47;;
82731;Laerm;72471;51.660;5.826;2024-01-06T11:38:36;54.69;37.4;78.71;;
82731;Laerm;72471;51.660;5.826;2024-01-06T11:42:34;62.27;37.54;86.53;;
82731;Laerm;72471;51.660;5.826;2024-01-06T11:46:34;58.79;37.77;81.8;;
82731;Laerm;72471;51.660;5.826;2024-01-06T11:50:34;53.52;38.04;72.14;;
82731;Laerm;72471;51.660;5.826;2024-01-06T11:54:34;44.46;37.71;65.3;;
82731;Laerm;72471;51.660;5.826;2024-01-06T11:58:34;52.25;37.74;80.57;;
82731;Laerm;72471;51.660;5.826;2024-01-06T12:02:34;44.14;36.89;59.21;;
82731;Laerm;72471;51.660;5.826;2024-01-06T12:06:34;45.28;37.5;62.11;;
82731;Laerm;72471;51.660;5.826;2024-01-06T12:10:34;56.04;37.96;79.99;;
82731;Laerm;72471;51.660;5.826;2024-01-06T12:16:10;55.14;40.8;77.85;;
82731;Laerm;72471;51.660;5.826;2024-01-06T12:20:10;48.19;37.18;75.92;;
82731;Laerm;72471;51.660;5.826;2024-01-06T12:24:14;46.7;37.75;57.6;;
82731;Laerm;72471;51.660;5.826;2024-01-06T12:28:09;47.16;37.37;58.35;;
82731;Laerm;72471;51.660;5.826;2024-01-06T12:32:10;51.08;38.76;70.03;;
82731;Laerm;72471;51.660;5.826;2024-01-06T12:36:10;49.69;39.21;68.8;;
82731;Laerm;72471;51.660;5.826;2024-01-06T12:40:10;50.1;38.02;68.99;;
82731;Laerm;72471;51.660;5.826;2024-01-06T12:44:09;53.77;37.99;70.09;;
82731;Laerm;72471;51.660;5.826;2024-01-06T12:48:09;51.73;37.93;68.91;;
82731;Laerm;72471;51.660;5.826;2024-01-06T12:52:09;50.53;38.11;67.72;;
82731;Laerm;72471;51.660;5.826;2024-01-06T12:56:09;49.51;37.65;68.37;;
82731;Laerm;72471;51.660;5.826;2024-01-06T13:00:10;49.74;37.41;68.1;;
82731;Laerm;72471;51.660;5.826;2024-01-06T13:04:09;52.28;37.74;66.98;;
82731;Laerm;72471;51.660;5.826;2024-01-06T13:08:09;49.98;38.84;67.48;;
82731;Laerm;72471;51.660;5.826;2024-01-06T13:12:09;50.45;39.04;67.3;;
82731;Laerm;72471;51.660;5.826;2024-01-06T13:16:10;50.64;41.44;66.77;;
82731;Laerm;72471;51.660;5.826;2024-01-06T13:20:10;49.96;41.7;67.52;;
82731;Laerm;72471;51.660;5.826;2024-01-06T13:24:09;49.56;39.01;67.96;;
82731;Laerm;72471;51.660;5.826;2024-01-06T13:28:10;49.08;37.98;68.19;;
82731;Laerm;72471;51.660;5.826;2024-01-06T13:32:10;51.23;38.3;67.78;;
82731;Laerm;72471;51.660;5.826;2024-01-06T13:36:10;50.53;38.18;68.05;;
82731;Laerm;72471;51.660;5.826;2024-01-06T13:40:10;48.71;38.4;66.86;;
82731;Laerm;72471;51.660;5.826;2024-01-06T13:44:09;49.16;37.34;67.17;;
82731;Laerm;72471;51.660;5.826;2024-01-06T13:48:10;50.52;37.98;67.03;;
82731;Laerm;72471;51.660;5.826;2024-01-06T13:52:09;50.35;38.81;65.56;;
82731;Laerm;72471;51.660;5.826;2024-01-06T13:56:10;50.61;37.81;65.95;;
82731;Laerm;72471;51.660;5.826;2024-01-06T14:00:11;50.26;39.74;66.28;;
82731;Laerm;72471;51.660;5.826;2024-01-06T14:04:10;49.89;38.98;65.71;;
82731;Laerm;72471;51.660;5.826;2024-01-06T14:08:10;49.28;38.89;65.55;;
82731;Laerm;72471;51.660;5.826;2024-01-06T14:12:10;49.62;37.37;66.84;;
82731;Laerm;72471;51.660;5.826;2024-01-06T14:16:10;49.69;37.23;66.2;;
82731;Laerm;72471;51.660;5.826;2024-01-06T14:20:10;48.67;37.38;66.08;;
82731;Laerm;72471;51.660;5.826;2024-01-06T14:24:10;49.6;38.13;66.22;;
82731;Laerm;72471;51.660;5.826;2024-01-06T14:28:10;48.26;38.06;65.81;;
82731;Laerm;72471;51.660;5.826;2024-01-06T14:32:10;49.31;37.85;65.84;;
82731;Laerm;72471;51.660;5.826;2024-01-06T14:36:10;49.48;38.66;69.69;;
82731;Laerm;72471;51.660;5.826;2024-01-06T14:40:11;49.23;37.89;66.67;;
82731;Laerm;72471;51.660;5.826;2024-01-06T14:44:10;49.03;37.62;66.54;;
82731;Laerm;72471;51.660;5.826;2024-01-06T14:48:10;49.6;37.91;65.27;;
82731;Laerm;72471;51.660;5.826;2024-01-06T14:52:10;48.97;38.35;65.03;;
82731;Laerm;72471;51.660;5.826;2024-01-06T14:56:10;48.74;39.39;65.1;;
82731;Laerm;72471;51.660;5.826;2024-01-06T15:00:10;46.97;38.17;65.03;;
82731;Laerm;72471;51.660;5.826;2024-01-06T15:04:10;47.07;37.68;65.32;;
82731;Laerm;72471;51.660;5.826;2024-01-06T15:08:10;48.9;37.27;64.74;;
82731;Laerm;72471;51.660;5.826;2024-01-06T15:12:10;50.68;40.99;65.01;;
82731;Laerm;72471;51.660;5.826;2024-01-06T15:16:10;49.18;38.17;65.43;;
82731;Laerm;72471;51.660;5.826;2024-01-06T15:20:10;47.29;37.99;64.26;;
82731;Laerm;72471;51.660;5.826;2024-01-06T15:24:10;48.99;37.25;65.47;;
82731;Laerm;72471;51.660;5.826;2024-01-06T15:28:10;50.5;40.28;64.69;;
82731;Laerm;72471;51.660;5.826;2024-01-06T15:32:10;48.53;39.95;64.23;;
82731;Laerm;72471;51.660;5.826;2024-01-06T15:36:10;48;39.38;65.2;;
82731;Laerm;72471;51.660;5.826;2024-01-06T15:40:10;48.41;40.13;64.72;;
82731;Laerm;72471;51.660;5.826;2024-01-06T15:44:10;49.17;37.9;63.92;;
82731;Laerm;72471;51.660;5.826;2024-01-06T15:48:10;50.66;39.68;64.78;;
82731;Laerm;72471;51.660;5.826;2024-01-06T15:52:10;50;39.33;68.63;;
82731;Laerm;72471;51.660;5.826;2024-01-06T15:56:10;49.24;38.12;64.41;;
82731;Laerm;72471;51.660;5.826;2024-01-06T16:00:10;48.04;37.52;64.74;;
82731;Laerm;72471;51.660;5.826;2024-01-06T16:04:10;50.49;38.58;64.99;;
82731;Laerm;72471;51.660;5.826;2024-01-06T16:08:10;47.15;37.96;64.17;;
82731;Laerm;72471;51.660;5.826;2024-01-06T16:12:10;50.43;38.39;65;;
82731;Laerm;72471;51.660;5.826;2024-01-06T16:16:10;45.78;37.08;68.44;;
82731;Laerm;72471;51.660;5.826;2024-01-06T16:20:10;48.02;37.49;64.04;;
82731;Laerm;72471;51.660;5.826;2024-01-06T16:24:11;46.74;36.55;64.41;;
82731;Laerm;72471;51.660;5.826;2024-01-06T16:28:10;48.04;36.94;64.18;;
82731;Laerm;72471;51.660;5.826;2024-01-06T16:32:10;46.68;37.12;63.52;;
82731;Laerm;72471;51.660;5.826;2024-01-06T16:36:10;45.37;36.04;63.51;;
82731;Laerm;72471;51.660;5.826;2024-01-06T16:40:10;48.7;36.96;64.11;;
82731;Laerm;72471;51.660;5.826;2024-01-06T16:44:10;46.25;36.86;63.43;;
82731;Laerm;72471;51.660;5.826;2024-01-06T16:48:10;48.07;37.24;63.92;;
82731;Laerm;72471;51.660;5.826;2024-01-06T16:52:10;47.6;36.55;64.56;;
82731;Laerm;72471;51.660;5.826;2024-01-06T16:56:11;48.92;36.52;63.52;;
82731;Laerm;72471;51.660;5.826;2024-01-06T17:00:10;48.14;36.3;63.63;;
82731;Laerm;72471;51.660;5.826;2024-01-06T17:04:10;47.05;36.44;64.68;;
82731;Laerm;72471;51.660;5.826;2024-01-06T17:08:10;46.71;35.88;62.89;;
82731;Laerm;72471;51.660;5.826;2024-01-06T17:12:10;46.29;35.83;63.64;;
82731;Laerm;72471;51.660;5.826;2024-01-06T17:16:10;48.27;36.64;64.31;;
82731;Laerm;72471;51.660;5.826;2024-01-06T17:20:10;47.5;36.2;63.5;;
82731;Laerm;72471;51.660;5.826;2024-01-06T17:28:10;47.64;36.13;63.72;;
82731;Laerm;72471;51.660;5.826;2024-01-06T17:32:10;43.23;35.77;63.36;;
82731;Laerm;72471;51.660;5.826;2024-01-06T17:36:13;49.93;36.35;64.94;;
82731;Laerm;72471;51.660;5.826;2024-01-06T17:40:10;47.01;35.84;63.76;;
82731;Laerm;72471;51.660;5.826;2024-01-06T17:44:10;47.69;36.22;63.42;;
82731;Laerm;72471;51.660;5.826;2024-01-06T17:48:10;45.13;36.36;62.76;;
82731;Laerm;72471;51.660;5.826;2024-01-06T17:52:10;44.75;35.89;63.59;;
82731;Laerm;72471;51.660;5.826;2024-01-06T17:56:10;48.34;35.93;63.7;;
82731;Laerm;72471;51.660;5.826;2024-01-06T18:00:10;46;36.1;63.65;;
82731;Laerm;72471;51.660;5.826;2024-01-06T18:04:10;46.88;35.82;63.55;;
82731;Laerm;72471;51.660;5.826;2024-01-06T18:08:10;45.09;35.86;63.2;;
82731;Laerm;72471;51.660;5.826;2024-01-06T18:12:10;45.68;35.65;63.44;;
82731;Laerm;72471;51.660;5.826;2024-01-06T18:16:11;48.68;36.13;63.49;;
82731;Laerm;72471;51.660;5.826;2024-01-06T18:20:10;48.57;36.07;65.77;;
82731;Laerm;72471;51.660;5.826;2024-01-06T18:24:10;45.1;35.98;63.74;;
82731;Laerm;72471;51.660;5.826;2024-01-06T18:28:10;46.33;35.94;64.21;;
82731;Laerm;72471;51.660;5.826;2024-01-06T18:32:10;44.12;35.79;63.52;;
82731;Laerm;72471;51.660;5.826;2024-01-06T18:36:10;47.8;36.16;63.73;;
82731;Laerm;72471;51.660;5.826;2024-01-06T18:40:11;46.69;35.76;63.93;;
82731;Laerm;72471;51.660;5.826;2024-01-06T18:44:10;43.87;35.6;63.23;;
82731;Laerm;72471;51.660;5.826;2024-01-06T18:48:11;52.16;36.04;68.6;;
82731;Laerm;72471;51.660;5.826;2024-01-06T18:52:10;45.52;35.32;63.64;;
82731;Laerm;72471;51.660;5.826;2024-01-06T18:56:10;46.09;35.49;63.7;;
82731;Laerm;72471;51.660;5.826;2024-01-06T19:00:11;45.81;35.52;63.7;;
82731;Laerm;72471;51.660;5.826;2024-01-06T19:04:10;46.28;35.58;63.8;;
82731;Laerm;72471;51.660;5.826;2024-01-06T19:08:10;45.83;35.54;63.89;;
82731;Laerm;72471;51.660;5.826;2024-01-06T19:12:12;52.62;35.74;66.66;;
82731;Laerm;72471;51.660;5.826;2024-01-06T19:16:11;44.97;35.87;63.52;;
82731;Laerm;72471;51.660;5.826;2024-01-06T19:20:10;46.52;36.23;63.37;;
82731;Laerm;72471;51.660;5.826;2024-01-06T19:24:10;46.37;35.93;64.37;;
82731;Laerm;72471;51.660;5.826;2024-01-06T19:28:10;46.24;35.89;63.32;;
82731;Laerm;72471;51.660;5.826;2024-01-06T19:32:10;46.15;35.9;63.75;;
82731;Laerm;72471;51.660;5.826;2024-01-06T19:36:10;47.96;35.88;63.52;;
82731;Laerm;72471;51.660;5.826;2024-01-06T19:40:10;48.93;35.91;63.96;;
82731;Laerm;72471;51.660;5.826;2024-01-06T19:44:20;45.45;36.2;63.53;;
82731;Laerm;72471;51.660;5.826;2024-01-06T19:48:15;44.68;35.95;63.66;;
82731;Laerm;72471;51.660;5.826;2024-01-06T19:52:15;48.04;36.49;62.81;;
82731;Laerm;72471;51.660;5.826;2024-01-06T19:56:15;42.98;35.24;63.37;;
82731;Laerm;72471;51.660;5.826;2024-01-06T20:00:11;45.92;35.73;63.48;;
82731;Laerm;72471;51.660;5.826;2024-01-06T20:04:10;46.84;35.64;63.47;;
82731;Laerm;72471;51.660;5.826;2024-01-06T20:08:11;45.3;35.55;63.58;;
82731;Laerm;72471;51.660;5.826;2024-01-06T20:12:10;45.75;35.7;63.51;;
82731;Laerm;72471;51.660;5.826;2024-01-06T20:16:10;46.97;35.55;63.1;;
82731;Laerm;72471;51.660;5.826;2024-01-06T20:20:10;45.2;35.71;62.8;;
82731;Laerm;72471;51.660;5.826;2024-01-06T20:24:10;45.84;35.94;63.49;;
82731;Laerm;72471;51.660;5.826;2024-01-06T20:28:10;46.56;35.56;63.61;;
82731;Laerm;72471;51.660;5.826;2024-01-06T20:32:10;45.8;35.57;63.71;;
82731;Laerm;72471;51.660;5.826;2024-01-06T20:36:10;43.53;35.55;63.63;;
82731;Laerm;72471;51.660;5.826;2024-01-06T20:40:11;43.33;35.64;63.73;;
82731;Laerm;72471;51.660;5.826;2024-01-06T20:44:10;48.34;35.91;64.53;;
82731;Laerm;72471;51.660;5.826;2024-01-06T20:48:10;46.98;35.96;63.42;;
82731;Laerm;72471;51.660;5.826;2024-01-06T20:52:10;44.82;35.51;63.59;;
82731;Laerm;72471;51.660;5.826;2024-01-06T20:56:10;45.51;35.53;63.56;;
82731;Laerm;72471;51.660;5.826;2024-01-06T21:00:10;45.34;35.16;63.43;;
82731;Laerm;72471;51.660;5.826;2024-01-06T21:04:10;43.41;35.28;63.86;;
82731;Laerm;72471;51.660;5.826;2024-01-06T21:08:10;45.08;35.48;63.78;;
82731;Laerm;72471;51.660;5.826;2024-01-06T21:12:10;43.1;35.75;63.28;;
82731;Laerm;72471;51.660;5.826;2024-01-06T21:16:10;44.22;35.76;62.97;;
82731;Laerm;72471;51.660;5.826;2024-01-06T21:20:10;45.48;35.79;64.16;;
82731;Laerm;72471;51.660;5.826;2024-01-06T21:24:10;45.36;35.63;62.84;;
82731;Laerm;72471;51.660;5.826;2024-01-06T21:28:10;46.07;35.28;63.54;;
82731;Laerm;72471;51.660;5.826;2024-01-06T21:32:10;45.94;35.71;63.59;;
82731;Laerm;72471;51.660;5.826;2024-01-06T21:36:10;43.15;35.5;63.22;;
82731;Laerm;72471;51.660;5.826;2024-01-06T21:40:10;43.9;35.57;63.55;;
82731;Laerm;72471;51.660;5.826;2024-01-06T21:44:10;43.55;35.66;63.3;;
82731;Laerm;72471;51.660;5.826;2024-01-06T21:48:12;46.32;36.06;63.64;;
82731;Laerm;72471;51.660;5.826;2024-01-06T21:52:10;45.95;35.45;63.45;;
82731;Laerm;72471;51.660;5.826;2024-01-06T21:56:10;45.47;35.37;63.42;;
82731;Laerm;72471;51.660;5.826;2024-01-06T22:00:11;44.59;35.86;63.35;;
82731;Laerm;72471;51.660;5.826;2024-01-06T22:04:11;45.05;35.76;63.32;;
82731;Laerm;72471;51.660;5.826;2024-01-06T22:08:10;43.64;35.58;63.23;;
82731;Laerm;72471;51.660;5.826;2024-01-06T22:12:10;46.23;35.37;63.17;;
82731;Laerm;72471;51.660;5.826;2024-01-06T22:16:11;44.82;35.71;63.34;;
82731;Laerm;72471;51.660;5.826;2024-01-06T22:20:10;45.4;35.6;63.63;;
82731;Laerm;72471;51.660;5.826;2024-01-06T22:24:10;46.4;35.9;63.77;;
82731;Laerm;72471;51.660;5.826;2024-01-06T22:28:10;46.03;35.66;63.27;;
82731;Laerm;72471;51.660;5.826;2024-01-06T22:32:10;45.79;35.36;63.7;;
82731;Laerm;72471;51.660;5.826;2024-01-06T22:36:11;43.85;35.73;63.59;;
82731;Laerm;72471;51.660;5.826;2024-01-06T22:40:10;45.6;35.2;63.7;;
82731;Laerm;72471;51.660;5.826;2024-01-06T22:44:10;44.22;35.44;63.77;;